createdAt,value
2017-12-06T00:00:34.472Z,32.93
2017-12-06T00:03:02.661Z,31.30
2017-12-06T00:05:32.456Z,31.57
2017-12-06T00:08:00.565Z,28.40
2017-12-06T00:10:28.730Z,31.57
2017-12-06T00:13:02.538Z,35.90
2017-12-06T00:15:36.231Z,32.47
2017-12-06T00:18:04.344Z,37.00
2017-12-06T00:20:33.227Z,32.23
2017-12-06T00:23:02.132Z,33.50
2017-12-06T00:25:30.293Z,37.13
2017-12-06T00:27:59.211Z,33.10
2017-12-06T00:30:27.327Z,29.70
2017-12-06T00:32:55.464Z,30.27
2017-12-06T00:35:23.594Z,30.23
2017-12-06T00:37:51.737Z,34.23
2017-12-06T00:40:19.886Z,32.67
2017-12-06T00:42:48.072Z,29.60
2017-12-06T00:45:16.185Z,32.13
2017-12-06T00:47:44.702Z,30.00
2017-12-06T00:50:12.825Z,31.30
2017-12-06T00:52:40.972Z,32.37
2017-12-06T00:55:09.101Z,29.63
2017-12-06T00:57:37.996Z,33.10
2017-12-06T01:00:06.891Z,33.60
2017-12-06T01:02:39.410Z,30.47
2017-12-06T01:05:07.539Z,27.90
2017-12-06T01:07:36.448Z,29.00
2017-12-06T01:10:04.564Z,28.17
2017-12-06T01:12:32.707Z,28.53
2017-12-06T01:15:00.830Z,25.43
2017-12-06T01:17:28.976Z,28.70
2017-12-06T01:19:57.080Z,31.87
2017-12-06T01:22:26.007Z,30.47
2017-12-06T01:24:54.116Z,25.30
2017-12-06T01:27:22.261Z,26.07
2017-12-06T01:29:50.379Z,25.53
2017-12-06T01:32:18.531Z,27.83
2017-12-06T01:34:46.659Z,29.53
2017-12-06T01:37:14.807Z,27.33
2017-12-06T01:39:42.916Z,24.67
2017-12-06T01:42:11.076Z,30.40
2017-12-06T01:44:39.202Z,20.97
2017-12-06T01:47:07.338Z,25.73
2017-12-06T01:49:35.517Z,21.90
2017-12-06T01:52:03.640Z,25.00
2017-12-06T01:54:31.781Z,25.30
2017-12-06T01:56:59.917Z,23.73
2017-12-06T01:59:28.055Z,26.20
2017-12-06T02:01:56.180Z,23.00
2017-12-06T02:04:24.337Z,26.67
2017-12-06T02:06:52.469Z,24.60
2017-12-06T02:09:21.465Z,24.40
2017-12-06T02:11:49.585Z,25.53
2017-12-06T02:14:17.733Z,28.03
2017-12-06T02:16:46.629Z,26.50
2017-12-06T02:19:15.561Z,22.33
2017-12-06T02:21:43.686Z,25.63
2017-12-06T02:24:12.588Z,23.13
2017-12-06T02:26:41.481Z,25.27
2017-12-06T02:29:10.397Z,28.07
2017-12-06T02:31:38.522Z,27.67
2017-12-06T02:34:06.670Z,24.90
2017-12-06T02:36:35.255Z,21.13
2017-12-06T02:39:03.441Z,30.77
2017-12-06T02:41:43.290Z,24.00
2017-12-06T02:44:23.149Z,20.30
2017-12-06T02:46:51.269Z,19.30
2017-12-06T02:49:19.406Z,26.60
2017-12-06T02:51:48.295Z,19.93
2017-12-06T02:54:16.438Z,20.43
2017-12-06T02:56:44.578Z,18.10
2017-12-06T02:59:12.730Z,21.13
2017-12-06T03:01:41.619Z,20.27
2017-12-06T03:04:10.529Z,20.33
2017-12-06T03:06:38.660Z,19.90
2017-12-06T03:09:06.798Z,19.20
2017-12-06T03:11:34.942Z,25.03
2017-12-06T03:14:03.060Z,21.00
2017-12-06T03:16:31.201Z,27.10
2017-12-06T03:18:59.324Z,22.73
2017-12-06T03:21:27.472Z,25.70
2017-12-06T03:23:55.616Z,23.20
2017-12-06T03:26:24.170Z,24.33
2017-12-06T03:28:53.066Z,21.17
2017-12-06T03:31:21.970Z,29.73
2017-12-06T03:33:50.095Z,22.93
2017-12-06T03:36:18.275Z,23.40
2017-12-06T03:38:46.402Z,24.83
2017-12-06T03:41:14.542Z,23.80
2017-12-06T03:43:42.672Z,24.13
2017-12-06T03:46:10.821Z,21.80
2017-12-06T03:48:38.937Z,25.03
2017-12-06T03:51:07.533Z,28.00
2017-12-06T03:53:35.645Z,24.70
2017-12-06T03:56:03.851Z,23.63
2017-12-06T03:58:31.965Z,23.60
2017-12-06T04:01:00.101Z,28.73
2017-12-06T04:03:28.225Z,25.87
2017-12-06T04:05:58.219Z,28.13
2017-12-06T04:08:26.381Z,26.80
2017-12-06T04:10:54.541Z,22.60
2017-12-06T04:13:22.673Z,23.30
2017-12-06T04:15:50.856Z,24.40
2017-12-06T04:18:18.985Z,22.10
2017-12-06T04:20:47.121Z,21.90
2017-12-06T04:23:15.609Z,25.60
2017-12-06T04:25:43.772Z,25.07
2017-12-06T04:28:11.946Z,25.20
2017-12-06T04:30:40.113Z,25.27
2017-12-06T04:33:08.614Z,25.00
2017-12-06T04:35:36.835Z,20.73
2017-12-06T04:38:06.364Z,23.70
2017-12-06T04:40:34.652Z,25.50
2017-12-06T04:43:02.826Z,24.30
2017-12-06T04:45:30.932Z,26.30
2017-12-06T04:47:59.209Z,22.63
2017-12-06T04:50:27.342Z,24.00
2017-12-06T04:52:55.485Z,21.50
2017-12-06T04:55:24.377Z,24.90
2017-12-06T04:57:53.291Z,29.90
2017-12-06T05:00:21.879Z,22.50
2017-12-06T05:02:50.061Z,23.63
2017-12-06T05:05:18.173Z,24.90
2017-12-06T05:07:46.313Z,22.33
2017-12-06T05:10:14.623Z,33.00
2017-12-06T05:12:42.774Z,23.80
2017-12-06T05:15:11.088Z,30.90
2017-12-06T05:17:39.305Z,26.03
2017-12-06T05:20:07.434Z,26.50
2017-12-06T05:22:35.592Z,21.80
2017-12-06T05:25:03.717Z,31.03
2017-12-06T05:27:32.617Z,23.50
2017-12-06T05:30:00.740Z,23.17
2017-12-06T05:32:28.893Z,24.33
2017-12-06T05:34:57.509Z,22.40
2017-12-06T05:37:25.661Z,23.70
2017-12-06T05:39:53.787Z,26.43
2017-12-06T05:42:22.694Z,23.50
2017-12-06T05:44:51.611Z,25.93
2017-12-06T05:47:19.759Z,27.30
2017-12-06T05:49:47.889Z,24.83
2017-12-06T05:52:16.025Z,27.93
2017-12-06T05:54:44.146Z,27.50
2017-12-06T05:57:12.292Z,27.53
2017-12-06T05:59:40.434Z,27.13
2017-12-06T06:02:08.595Z,27.73
2017-12-06T06:04:37.479Z,25.83
2017-12-06T06:07:06.498Z,28.33
2017-12-06T06:09:35.489Z,25.30
2017-12-06T06:12:03.629Z,25.27
2017-12-06T06:14:32.197Z,24.40
2017-12-06T06:17:00.315Z,22.73
2017-12-06T06:19:28.481Z,23.43
2017-12-06T06:21:56.600Z,27.23
2017-12-06T06:24:24.736Z,30.90
2017-12-06T06:26:52.865Z,23.27
2017-12-06T06:29:21.021Z,31.10
2017-12-06T06:31:49.150Z,26.30
2017-12-06T06:34:17.295Z,29.47
2017-12-06T06:36:45.446Z,23.13
2017-12-06T06:39:13.613Z,24.80
2017-12-06T06:41:41.756Z,26.70
2017-12-06T06:44:09.906Z,28.17
2017-12-06T06:46:38.779Z,28.57
2017-12-06T06:49:06.917Z,28.30
2017-12-06T06:51:35.043Z,24.60
2017-12-06T06:54:03.946Z,33.17
2017-12-06T06:56:32.073Z,26.03
2017-12-06T06:59:00.217Z,23.97
2017-12-06T07:01:28.339Z,27.27
2017-12-06T07:03:56.481Z,26.47
2017-12-06T07:06:24.609Z,23.43
2017-12-06T07:08:52.746Z,24.30
2017-12-06T07:11:20.887Z,26.87
2017-12-06T07:13:49.054Z,22.67
2017-12-06T07:16:17.172Z,27.43
2017-12-06T07:18:46.134Z,33.27
2017-12-06T07:21:14.257Z,24.73
2017-12-06T07:23:43.172Z,26.93
2017-12-06T07:26:11.329Z,30.70
2017-12-06T07:28:39.458Z,27.73
2017-12-06T07:31:07.626Z,27.73
2017-12-06T07:33:35.757Z,25.43
2017-12-06T07:36:03.916Z,31.40
2017-12-06T07:38:32.796Z,31.23
2017-12-06T07:41:01.717Z,29.13
2017-12-06T07:43:29.844Z,29.10
2017-12-06T07:45:57.982Z,22.67
2017-12-06T07:48:26.096Z,28.10
2017-12-06T07:50:54.246Z,24.60
2017-12-06T07:53:22.373Z,29.03
2017-12-06T07:55:50.508Z,25.47
2017-12-06T07:58:24.341Z,24.30
2017-12-06T08:00:52.502Z,27.87
2017-12-06T08:03:20.614Z,26.23
2017-12-06T08:05:48.761Z,26.67
2017-12-06T08:08:16.884Z,24.43
2017-12-06T08:10:45.021Z,28.53
2017-12-06T08:13:13.185Z,29.23
2017-12-06T08:15:41.349Z,24.10
2017-12-06T08:18:10.235Z,26.40
2017-12-06T08:20:39.158Z,25.80
2017-12-06T08:23:07.278Z,26.30
2017-12-06T08:25:35.466Z,24.97
2017-12-06T08:28:03.610Z,26.97
2017-12-06T08:30:31.766Z,33.03
2017-12-06T08:32:59.898Z,29.17
2017-12-06T08:35:28.809Z,29.83
2017-12-06T08:37:57.403Z,28.33
2017-12-06T08:40:25.561Z,28.73
2017-12-06T08:42:54.139Z,27.07
2017-12-06T08:45:23.068Z,29.80
2017-12-06T08:47:51.650Z,25.80
2017-12-06T08:50:19.797Z,27.77
2017-12-06T08:52:47.922Z,28.80
2017-12-06T08:55:16.127Z,31.70
2017-12-06T08:57:45.025Z,28.10
2017-12-06T09:00:13.937Z,23.30
2017-12-06T09:02:42.094Z,29.90
2017-12-06T09:05:10.217Z,32.57
2017-12-06T09:07:38.734Z,24.60
2017-12-06T09:10:07.619Z,27.13
2017-12-06T09:12:35.782Z,29.27
2017-12-06T09:15:04.690Z,27.73
2017-12-06T09:17:33.608Z,25.87
2017-12-06T09:20:01.725Z,27.37
2017-12-06T09:22:29.856Z,25.83
2017-12-06T09:24:58.006Z,30.63
2017-12-06T09:27:26.917Z,43.03
2017-12-06T09:29:55.046Z,24.53
2017-12-06T09:32:23.217Z,25.33
2017-12-06T09:34:51.343Z,23.00
2017-12-06T09:37:19.478Z,23.03
2017-12-06T09:39:47.593Z,27.83
2017-12-06T09:42:15.747Z,27.63
2017-12-06T09:44:43.885Z,22.77
2017-12-06T09:47:12.034Z,22.07
2017-12-06T09:49:40.172Z,26.93
2017-12-06T09:52:08.347Z,24.73
2017-12-06T09:54:36.482Z,30.23
2017-12-06T09:57:05.415Z,22.67
2017-12-06T09:59:33.557Z,24.77
2017-12-06T10:02:02.498Z,23.00
2017-12-06T10:04:30.621Z,23.03
2017-12-06T10:06:59.561Z,22.83
2017-12-06T10:09:27.702Z,22.20
2017-12-06T10:11:55.963Z,25.97
2017-12-06T10:14:24.874Z,22.03
2017-12-06T10:16:53.028Z,22.67
2017-12-06T10:19:21.170Z,23.87
2017-12-06T10:21:49.359Z,24.17
2017-12-06T10:24:17.481Z,25.97
2017-12-06T10:26:45.649Z,20.80
2017-12-06T10:29:13.785Z,22.90
2017-12-06T10:31:41.912Z,18.33
2017-12-06T10:34:10.088Z,20.90
2017-12-06T10:36:38.205Z,24.20
2017-12-06T10:39:06.359Z,19.13
2017-12-06T10:41:34.484Z,18.73
2017-12-06T10:44:02.650Z,20.00
2017-12-06T10:46:31.531Z,25.30
2017-12-06T10:49:01.911Z,19.80
2017-12-06T10:51:30.104Z,24.13
2017-12-06T10:53:58.239Z,22.07
2017-12-06T10:56:26.433Z,19.70
2017-12-06T10:58:54.572Z,22.17
2017-12-06T11:01:22.762Z,22.87
2017-12-06T11:03:50.896Z,20.87
2017-12-06T11:06:19.880Z,20.07
2017-12-06T11:08:48.787Z,20.83
2017-12-06T11:11:17.702Z,19.63
2017-12-06T11:13:45.847Z,23.30
2017-12-06T11:16:14.778Z,18.67
2017-12-06T11:18:42.917Z,25.37
2017-12-06T11:21:11.823Z,26.20
2017-12-06T11:23:39.953Z,20.57
2017-12-06T11:26:08.126Z,16.43
2017-12-06T11:28:36.257Z,20.23
2017-12-06T11:31:04.413Z,21.60
2017-12-06T11:33:33.312Z,23.80
2017-12-06T11:36:01.466Z,26.00
2017-12-06T11:38:30.354Z,21.07
2017-12-06T11:40:59.270Z,22.27
2017-12-06T11:43:27.402Z,20.73
2017-12-06T11:45:55.544Z,21.73
2017-12-06T11:48:23.682Z,22.10
2017-12-06T11:50:51.853Z,25.53
2017-12-06T11:53:19.997Z,18.53
2017-12-06T11:55:48.156Z,21.07
2017-12-06T11:58:16.358Z,22.10
2017-12-06T12:00:45.251Z,21.40
2017-12-06T12:03:14.162Z,22.60
2017-12-06T12:05:42.274Z,20.40
2017-12-06T12:08:10.426Z,23.63
2017-12-06T12:10:38.559Z,21.90
2017-12-06T12:13:07.458Z,21.00
2017-12-06T12:15:36.341Z,18.60
2017-12-06T12:18:05.317Z,20.83
2017-12-06T12:20:33.450Z,20.43
2017-12-06T12:23:01.590Z,23.73
2017-12-06T12:25:30.889Z,26.30
2017-12-06T12:27:59.073Z,20.67
2017-12-06T12:30:27.243Z,19.40
2017-12-06T12:32:55.464Z,20.80
2017-12-06T12:35:24.229Z,24.27
2017-12-06T12:37:52.368Z,24.80
2017-12-06T12:40:20.539Z,25.60
2017-12-06T12:42:49.441Z,23.90
2017-12-06T12:45:18.331Z,24.47
2017-12-06T12:47:47.237Z,24.40
2017-12-06T12:50:15.384Z,23.30
2017-12-06T12:52:44.323Z,25.47
2017-12-06T12:55:12.437Z,24.40
2017-12-06T12:57:40.585Z,20.20
2017-12-06T13:00:08.787Z,21.33
2017-12-06T13:02:38.825Z,22.90
2017-12-06T13:05:07.884Z,22.10
2017-12-06T13:07:36.930Z,20.30
2017-12-06T13:10:05.044Z,22.80
2017-12-06T13:12:33.624Z,25.03
2017-12-06T13:15:01.965Z,18.80
2017-12-06T13:17:30.158Z,21.17
2017-12-06T13:19:58.290Z,17.97
2017-12-06T13:22:27.172Z,19.33
2017-12-06T13:24:55.361Z,20.43
2017-12-06T13:27:24.262Z,14.90
2017-12-06T13:29:52.442Z,19.10
2017-12-06T13:32:20.556Z,21.03
2017-12-06T13:34:48.713Z,14.03
2017-12-06T13:37:16.919Z,15.43
2017-12-06T13:39:45.153Z,15.47
2017-12-06T13:42:14.106Z,12.87
2017-12-06T13:44:43.204Z,13.57
2017-12-06T13:47:11.406Z,13.30
2017-12-06T13:49:39.549Z,12.50
2017-12-06T13:52:08.796Z,14.00
2017-12-06T13:54:36.957Z,20.60
2017-12-06T13:57:05.117Z,15.20
2017-12-06T13:59:33.302Z,14.27
2017-12-06T14:02:01.427Z,14.37
2017-12-06T14:04:29.600Z,16.47
2017-12-06T14:06:57.734Z,15.90
2017-12-06T14:09:25.902Z,21.60
2017-12-06T14:11:54.042Z,14.27
2017-12-06T14:14:22.963Z,20.20
2017-12-06T14:16:51.096Z,16.53
2017-12-06T14:19:19.257Z,16.30
2017-12-06T14:21:47.391Z,14.77
2017-12-06T14:24:15.535Z,14.47
2017-12-06T14:26:44.455Z,17.87
2017-12-06T14:29:12.624Z,13.93
2017-12-06T14:31:40.760Z,15.60
2017-12-06T14:34:09.686Z,14.43
2017-12-06T14:36:37.827Z,14.73
2017-12-06T14:39:06.755Z,16.87
2017-12-06T14:41:34.893Z,17.50
2017-12-06T14:44:03.846Z,18.17
2017-12-06T14:46:31.982Z,20.37
2017-12-06T14:49:00.143Z,19.30
2017-12-06T14:51:29.043Z,23.93
2017-12-06T14:53:57.214Z,16.30
2017-12-06T14:56:25.343Z,20.93
2017-12-06T14:58:53.510Z,15.17
2017-12-06T15:01:21.642Z,17.57
2017-12-06T15:03:49.802Z,13.07
2017-12-06T15:06:17.935Z,16.43
2017-12-06T15:08:46.102Z,13.37
2017-12-06T15:11:14.229Z,17.03
2017-12-06T15:13:42.398Z,20.53
2017-12-06T15:16:11.281Z,13.63
2017-12-06T15:18:40.194Z,16.40
2017-12-06T15:21:08.339Z,12.60
2017-12-06T15:23:37.282Z,12.30
2017-12-06T15:26:05.432Z,12.80
2017-12-06T15:28:33.587Z,11.17
2017-12-06T15:31:01.866Z,13.13
2017-12-06T15:33:30.784Z,9.67
2017-12-06T15:35:58.937Z,12.20
2017-12-06T15:38:27.083Z,12.37
2017-12-06T15:40:55.267Z,13.87
2017-12-06T15:43:24.166Z,11.20
2017-12-06T15:45:53.091Z,10.80
2017-12-06T15:48:21.214Z,11.50
2017-12-06T15:50:49.378Z,13.93
2017-12-06T15:53:17.546Z,10.37
2017-12-06T15:55:45.745Z,11.23
2017-12-06T15:58:14.643Z,10.80
2017-12-06T16:00:43.562Z,9.73
2017-12-06T16:03:11.712Z,12.60
2017-12-06T16:05:40.615Z,14.07
2017-12-06T16:08:08.756Z,8.80
2017-12-06T16:10:36.929Z,16.13
2017-12-06T16:13:05.098Z,12.77
2017-12-06T16:15:32.933Z,12.63
2017-12-06T16:18:01.234Z,10.30
2017-12-06T16:20:29.390Z,10.07
2017-12-06T16:22:57.610Z,11.30
2017-12-06T16:25:25.799Z,10.00
2017-12-06T16:27:53.952Z,10.67
2017-12-06T16:30:22.110Z,10.43
2017-12-06T16:32:50.256Z,12.53
2017-12-06T16:35:30.233Z,9.87
2017-12-06T16:37:58.374Z,10.07
2017-12-06T16:40:26.526Z,13.70
2017-12-06T16:42:54.663Z,11.83
2017-12-06T16:45:22.786Z,24.93
2017-12-06T16:47:50.925Z,12.00
2017-12-06T16:50:19.815Z,20.73
2017-12-06T16:52:48.769Z,13.60
2017-12-06T16:55:16.889Z,13.23
2017-12-06T16:57:45.814Z,13.17
2017-12-06T17:00:13.942Z,16.07
2017-12-06T17:02:44.794Z,17.83
2017-12-06T17:05:12.849Z,10.37
2017-12-06T17:07:40.987Z,13.33
2017-12-06T17:10:09.142Z,13.00
2017-12-06T17:12:37.328Z,12.47
2017-12-06T17:15:05.443Z,14.27
2017-12-06T17:17:34.125Z,12.60
2017-12-06T17:20:02.319Z,14.73
2017-12-06T17:22:31.339Z,12.40
2017-12-06T17:25:01.779Z,18.90
2017-12-06T17:27:30.071Z,16.43
2017-12-06T17:30:10.082Z,14.03
2017-12-06T17:32:38.406Z,20.00
2017-12-06T17:35:06.593Z,15.33
2017-12-06T17:37:34.765Z,17.50
2017-12-06T17:40:04.427Z,16.70
2017-12-06T17:42:32.483Z,15.17
2017-12-06T17:45:00.623Z,28.47
2017-12-06T17:47:29.644Z,16.37
2017-12-06T17:50:09.586Z,19.03
2017-12-06T17:52:37.782Z,27.80
2017-12-06T17:55:05.898Z,14.13
2017-12-06T17:57:35.710Z,16.27
2017-12-06T18:00:04.409Z,13.53
2017-12-06T18:02:38.194Z,20.13
2017-12-06T18:05:09.157Z,47.40
2017-12-06T18:07:37.370Z,13.17
2017-12-06T18:10:05.553Z,20.30
2017-12-06T18:12:33.696Z,18.10
2017-12-06T18:15:02.676Z,18.40
2017-12-06T18:17:30.803Z,13.03
2017-12-06T18:19:58.987Z,14.00
2017-12-06T18:22:27.113Z,16.33
2017-12-06T18:24:55.283Z,20.10
2017-12-06T18:27:24.167Z,12.33
2017-12-06T18:29:52.322Z,14.17
2017-12-06T18:32:20.434Z,15.10
2017-12-06T18:34:49.346Z,15.07
2017-12-06T18:37:17.468Z,13.07
2017-12-06T18:39:46.842Z,13.77
2017-12-06T18:42:15.606Z,12.80
2017-12-06T18:44:43.749Z,16.43
2017-12-06T18:47:12.627Z,12.47
2017-12-06T18:49:40.874Z,14.73
2017-12-06T18:52:10.134Z,12.47
2017-12-06T18:54:38.277Z,18.03
2017-12-06T18:57:06.418Z,26.27
2017-12-06T18:59:34.557Z,19.17
2017-12-06T19:02:02.740Z,18.73
2017-12-06T19:04:30.926Z,13.77
2017-12-06T19:06:59.084Z,17.67
2017-12-06T19:09:27.238Z,14.00
2017-12-06T19:11:55.365Z,13.43
2017-12-06T19:14:23.554Z,14.13
2017-12-06T19:16:51.679Z,12.77
2017-12-06T19:19:19.806Z,15.00
2017-12-06T19:21:47.958Z,15.20
2017-12-06T19:24:18.551Z,19.50
2017-12-06T19:26:46.750Z,15.87
2017-12-06T19:29:14.897Z,15.93
2017-12-06T19:31:43.078Z,13.73
2017-12-06T19:34:11.221Z,13.27
2017-12-06T19:36:39.466Z,12.80
2017-12-06T19:39:07.589Z,16.03
2017-12-06T19:41:36.517Z,11.63
2017-12-06T19:44:04.663Z,13.33
2017-12-06T19:46:32.820Z,11.23
2017-12-06T19:49:01.706Z,14.73
2017-12-06T19:51:30.654Z,14.70
2017-12-06T19:53:58.820Z,13.70
2017-12-06T19:56:27.029Z,14.77
2017-12-06T19:58:55.271Z,13.30
2017-12-06T20:01:23.437Z,16.23
2017-12-06T20:03:51.565Z,11.90
2017-12-06T20:06:19.755Z,14.17
2017-12-06T20:08:48.635Z,13.30
2017-12-06T20:11:17.550Z,12.70
2017-12-06T20:13:45.678Z,12.10
2017-12-06T20:16:13.841Z,20.80
2017-12-06T20:18:41.991Z,53.00
2017-12-06T20:21:10.178Z,10.30
2017-12-06T20:23:38.326Z,115.10
2017-12-06T20:26:06.563Z,110.30
2017-12-06T20:28:35.462Z,120.77
2017-12-06T20:31:04.398Z,14.87
2017-12-06T20:33:32.515Z,12.07
2017-12-06T20:36:01.436Z,9.67
2017-12-06T20:38:29.558Z,14.87
2017-12-06T20:40:57.705Z,15.60
2017-12-06T20:43:25.830Z,17.00
2017-12-06T20:45:53.978Z,9.30
2017-12-06T20:48:22.081Z,9.90
2017-12-06T20:50:50.967Z,12.53
2017-12-06T20:53:19.182Z,12.27
2017-12-06T20:55:47.323Z,20.40
2017-12-06T20:58:16.232Z,20.40
2017-12-06T21:00:45.010Z,10.17
2017-12-06T21:03:13.909Z,8.40
2017-12-06T21:05:42.053Z,11.93
2017-12-06T21:08:10.531Z,9.53
2017-12-06T21:10:39.447Z,10.37
2017-12-06T21:13:08.354Z,13.90
2017-12-06T21:15:36.470Z,8.10
2017-12-06T21:18:04.627Z,8.80
2017-12-06T21:20:32.802Z,8.60
2017-12-06T21:23:01.863Z,8.10
2017-12-06T21:25:30.737Z,8.67
2017-12-06T21:27:59.238Z,9.33
2017-12-06T21:30:27.374Z,8.37
2017-12-06T21:32:55.515Z,7.63
2017-12-06T21:35:23.642Z,10.20
2017-12-06T21:37:52.545Z,9.47
2017-12-06T21:40:21.472Z,7.23
2017-12-06T21:42:49.674Z,7.77
2017-12-06T21:45:17.773Z,7.63
2017-12-06T21:47:46.673Z,8.47
2017-12-06T21:50:15.550Z,8.30
2017-12-06T21:52:44.102Z,9.30
2017-12-06T21:55:12.215Z,18.47
2017-12-06T21:57:41.135Z,12.93
2017-12-06T22:00:09.278Z,9.60
2017-12-06T22:02:38.177Z,6.30
2017-12-06T22:05:07.078Z,6.97
2017-12-06T22:07:35.656Z,18.37
2017-12-06T22:10:03.986Z,13.00
2017-12-06T22:12:32.134Z,10.80
2017-12-06T22:15:00.334Z,17.23
2017-12-06T22:17:29.516Z,22.63
2017-12-06T22:19:58.501Z,9.63
2017-12-06T22:22:26.777Z,7.60
2017-12-06T22:24:54.904Z,10.93
2017-12-06T22:27:23.793Z,7.33
2017-12-06T22:29:52.701Z,8.67
2017-12-06T22:32:20.998Z,6.50
2017-12-06T22:34:49.137Z,8.43
2017-12-06T22:37:18.046Z,7.90
2017-12-06T22:39:46.206Z,9.60
2017-12-06T22:42:15.054Z,11.10
2017-12-06T22:44:54.985Z,19.73
2017-12-06T22:47:23.100Z,7.27
2017-12-06T22:49:51.264Z,12.00
2017-12-06T22:52:19.422Z,10.17
2017-12-06T22:54:47.554Z,16.23
2017-12-06T22:57:15.682Z,6.30
2017-12-06T22:59:44.615Z,6.63
2017-12-06T23:02:12.739Z,6.60
2017-12-06T23:04:40.880Z,6.30
2017-12-06T23:07:09.313Z,5.27
2017-12-06T23:09:37.458Z,6.00
2017-12-06T23:12:05.572Z,8.37
2017-12-06T23:14:34.473Z,7.03
2017-12-06T23:17:03.386Z,9.10
2017-12-06T23:19:31.534Z,7.50
2017-12-06T23:21:59.641Z,6.00
2017-12-06T23:24:27.776Z,6.30
2017-12-06T23:26:55.910Z,5.30
2017-12-06T23:29:24.050Z,6.30
2017-12-06T23:31:52.193Z,6.60
2017-12-06T23:34:20.334Z,7.10
2017-12-06T23:36:48.442Z,8.77
2017-12-06T23:39:16.605Z,5.47
2017-12-06T23:41:44.724Z,6.30
2017-12-06T23:44:12.838Z,7.00
2017-12-06T23:46:40.986Z,6.40
2017-12-06T23:49:09.128Z,8.73
2017-12-06T23:51:38.041Z,7.77
2017-12-06T23:54:06.175Z,7.00
2017-12-06T23:56:34.617Z,8.40
2017-12-06T23:59:02.836Z,9.17
